Terminal Aerodrome Forecast
Issued by NWS

Current Version | Previous Version | Graphics & Text | Print | Product List | Glossary On
Versions: 1 2 3 4 5 6 7 8 9 10 11 12 13 14 15
000
FTUS41 KPBZ 271133
TAFMGW
TAF
KMGW 271133Z 2712/2812 VRB04KT P6SM SCT060
     FM271400 35005KT P6SM BKN060
     FM280200 VRB03KT P6SM SCT035
     FM280900 VRB03KT 3SM BR SKC=

USA.gov is the U.S. government's official web portal to all federal, state and local government web resources and services.